Airfield :
LOGIN :

Register | Disclaimer

   EN    FR    IT 

 










Legend :    VFR   Marginal VFR   IFR   Intensive IFR   Very Intensive IFR
Visi :
Ceiling :
>= 8 km
>= 3000ft
5 to 8 km
1000 to 3000 ft
1500m to 5 km
500 to 1000 ft
800 to 1500m
200 to 500 ft
< 800m
< 200 ft
Symbols :   Thunderstorms  Fog  Heavy snow  Heavy precipitations  Wind > 20 kt
SIGMETs :     Misc.  Thunderstorms  Icing  Turbulence  Mountain Waves  Volcanic Ashes







- Airport Elevation : 171 ft
- IATA code : EGC
- Download approach charts


LFBE - Bergerac

CURRENT METAR :
  • 220830Z AUTO VRB02KT 7000 FEW001 08/08 Q1025 NOSIG

EXPIRED METARs :
  • 220800Z AUTO VRB02KT 0550 R27/0750N FG VV/// 07/07 Q1025 BECMG CAVOK
  • 220730Z AUTO 04001KT 0500 R27/1100U FG VV/// 05/05 Q1025 BECMG CAVOK
  • 220700Z AUTO VRB02KT 0250 R27/0250N FG VV/// 04/04 Q1024 BECMG CAVOK
  • 220630Z AUTO 03002KT 0400 R27/0450N FG VV/// 04/04 Q1024 BECMG CAVOK
  • 220600Z AUTO 00000KT 0550 R27/0750U FG VV/// 04/03 Q1023 BECMG 0300 FG

TAF TAF LFBE
Valid from the 22 at 06:00 until the 23 at 06:00 UTC


220500Z 2206/2306 VRB02KT 0300 FG VV///
BECMG 2208/2210 CAVOK
BECMG 2210/2212 02008KT
No reported NOTAMs for that airfield.



MET'MAP, your aeronautical weather chart ! - Copyright ORBIFLY December 2007 - Disclaimer

ORBIFLY MET'MAP TEAM :

Programming & Development : Alexandra Zaïnal
Concept & Development : Baudouin d'Aumeries
Co-Development & Prog : Marc-Olivier Méhu
Technical & hardware support : Manuel Goepfert

Contact : metmap@orbifly.com




SOURCES & CREDITS :

   NOAA